EGSSEGJJ

Guest
Details From EGSS - London Stansted
To EGJJ - Jersey
Flight Number -
Tags Generated
Created
Modified
Stats Distance 185 nm / 343 km
Max Altitude 0 ft / 0 m
Waypoints 2
Social Downloads 3
Likes 0
Share VATSIM

Download

Looking for another format? Having issues loading an existing format? Contact us
Advertisement - Login to hide

Notes

Generated

Route

EGSS EGJJ

ID Type Via Altitude Latitude Longitude Leg Dist Tot Dist Heading (true) Name
O EGSS APT - 0 ft / 0 m 51.87508˚ 0.21993˚ - 0 nm - -
O EGJJ APT - 0 ft / 0 m 49.20699˚ -2.20693˚ 185 nm 185 nm 211° / 209° -

Altitude Profile

Advertisement - Login to hide

Weather


0- 5 10 15 20 25 30 35+ Temperature / ° C

Clouds and Precipitation
Forecast for 2017-12-11 06:00 UTC. Updated an hour ago

Ground ~20,000 ft ~40,000 ft Winds

EGSS

Details ICAO EGSS (STN)
Name London Stansted
Region United Kingdom
Timezone Europe/London (UTC+0.0)
Stats Elevation 348 ft / 106 m (AMSL)
Location 51.885097° 0.234962°
Runways 1
Magnetic Variation 0.364° W

METAR

EGSS 110420Z 03009KT 7000 BKN002 00/00 Q0980

Decode

TAF

TAF EGSS 102302Z 1100/1206 04006KT 5000 BR BKN002 TEMPO 1100/1105 0200 -RASN FZFG BKN000 PROB30 TEMPO 1100/1105 SN TEMPO 1105/1114 3000 RASN PROB30 TEMPO 1105/1114 0800 SN VV/// PROB30 TEMPO 1109/1115 02015G25KT BECMG 1112/1115 34012KT FEW020 BECMG 1200/1203 28008KT

Decode

Departure Runways

ID Width Length Bearing (true) Bearing (mag) Surface Threshold Offset Overrun Length
04 151 ft / 46 m 10,011 ft / 3,052 m 42.79° 43.15° Asphalt 994 ft / 303 m 0 ft / 0 m
22 151 ft / 46 m 10,011 ft / 3,052 m 222.81° 223.17° Asphalt 0 ft / 0 m 0 ft / 0 m

EGJJ

Details ICAO EGJJ (JER)
Name Jersey
Region United Kingdom
Timezone Europe/Jersey (UTC+0.0)
Stats Elevation 277 ft / 84 m (AMSL)
Location 49.207964° -2.195294°
Runways 1
Magnetic Variation 0.904° W

METAR

EGJJ 110420Z AUTO 06020G31KT 4000 +RA SCT010/// SCT015/// BKN022/// 06/05 Q0968

Decode

TAF

Not found

Destination Runways

ID Width Length Bearing (true) Bearing (mag) Surface Threshold Offset Overrun Length
09 151 ft / 46 m 5,593 ft / 1,705 m 82.73° 83.63° Asphalt 200 ft / 61 m 0 ft / 0 m
27 151 ft / 46 m 5,593 ft / 1,705 m 262.74° 263.64° Asphalt 302 ft / 92 m 0 ft / 0 m

Approach Navaids

Runway Type Ident Frequency Range Bearing (true) Bearing (mag) Slope Elevation
09 Localiser IJJ 110.90 MHz 18 nm / 33 km 82.59° 83.50° - 277 ft / 84 m (AMSL)
09 Glidescope IJJ 110.90 MHz 10 nm / 19 km 82.74° 83.64° 3.00° 277 ft / 84 m (AMSL)
09 DME IJJ 110.90 MHz 18 nm / 33 km - - - 287 ft / 87 m (AMSL)
27 Localiser IDD 110.30 MHz 18 nm / 33 km 262.70° 263.60° - 277 ft / 84 m (AMSL)
27 Glidescope IDD 110.30 MHz 10 nm / 19 km 262.74° 263.64° 3.00° 277 ft / 84 m (AMSL)
27 DME IDD 110.30 MHz 18 nm / 33 km - - - 289 ft / 88 m (AMSL)

Popular Alternatives